• Join FlightAware (Why Join?)
  • Login
  • US Flag 
01:46AM EST


 

Airport Tracker/Info


-or-


 

Live Flight TrackerFlight Track Log ✈ RPA3228 ✈ 06-Jul-2013 ✈ KDCA - KBUF

Flight Track Log - Related Links

Times and Time Zones

All times are in EDT time to prevent confusion due to time zone crossing. See the RPA3228 flight status page for this flight to view local times or setup timezone preferences in your user account.

Time Position Orientation Groundspeed Altitude Reporting Facility
EDT Latitude Longitude Course Direction KTS MPH feet Rate Location/Type
10:30AM 38.8000 -77.0333 339° North 197 227 2,300  Level Potomac TRACON
10:31AM 38.7500 -77.0833 218° Southwest 261 300 4,900 2,940 Climbing Potomac TRACON
10:32AM 39.1885 -77.2184 346° North  Level FlightAware Approximate
10:32AM 38.7333 -77.1667 256° West 271 312 8,300  Level Potomac TRACON
10:33AM 39.2795 -77.2589 337° Northwest  Level FlightAware Approximate
10:33AM 38.7667 -77.2500 297° West 305 351 11,300  Level Potomac TRACON
10:34AM 39.3683 -77.3083 337° Northwest  Level FlightAware Approximate
10:34AM 38.8500 -77.3000 335° Northwest 326 375 13,800  Level Potomac TRACON
10:35AM 39.4557 -77.3612 339° North  Level FlightAware Approximate
10:35AM 38.9333 -77.3500 335° Northwest 357 411 16,400  Level Potomac TRACON
10:36AM 39.0333 -77.3667 353° North 395 455 17,100 300 Climbing Potomac TRACON
10:37AM 39.1500 -77.3833 354° North 363 418 17,100 300 Level Potomac TRACON
10:39AM 39.3458 -77.4111 354° North 375 432 18,100 600 Climbing Washington Center
10:40AM 39.4517 -77.4272 353° North 375 432 19,000 420 Climbing Washington Center
10:41AM 39.5556 -77.4433 353° North 375 432 19,000 360 Level Washington Center
10:42AM 39.7303 -77.4550 357° North 409 471 20,000 360 Climbing New York Center
10:43AM 39.8350 -77.4811 349° North 396 456 20,000 660 Level New York Center
10:44AM 39.9392 -77.5211 344° North 390 449 21,400 960 Climbing New York Center
10:45AM 40.0431 -77.5608 344° North 390 449 22,000 240 Climbing New York Center
10:46AM 40.1475 -77.5983 345° North 390 449 22,000  Level New York Center
10:47AM 40.2533 -77.6414 343° North 390 449 22,000  Level New York Center
10:48AM 40.3572 -77.6817 344° North 390 449 22,000  Level New York Center
10:49AM 40.4694 -77.7256 343° North 396 456 22,000  Level New York Center
10:52AM 40.6967 -77.8169 343° North 431 496 22,000  Level Cleveland Center
10:53AM 40.8228 -77.8667 343° North 425 489 22,000  Level Cleveland Center
10:54AM 40.9364 -77.9086 344° North 425 489 22,000  Level Cleveland Center
10:55AM 41.0481 -77.9536 343° North 425 489 22,000  Level Cleveland Center
10:56AM 41.1594 -77.9989 343° North 425 489 22,000  Level Cleveland Center
10:57AM 41.2731 -78.0442 343° North 425 489 22,000  Level Cleveland Center
10:58AM 41.3844 -78.0867 344° North 425 489 22,000  Level Cleveland Center
10:59AM 41.4939 -78.1325 343° North 420 483 22,000  Level Cleveland Center
11:00AM 41.6033 -78.1783 343° North 420 483 22,000  Level Cleveland Center
11:01AM 41.7042 -78.2192 343° North 420 483 22,000 -840 Level Cleveland Center
11:02AM 41.8136 -78.2625 344° North 415 478 20,400 -1,800 Descending Cleveland Center
11:03AM 41.9208 -78.3061 343° North 409 471 18,500 -1,800 Descending Cleveland Center
11:04AM 42.0217 -78.3469 343° North 399 459 16,800 -1,800 Descending Cleveland Center
11:05AM 42.1247 -78.3939 341° North 388 447 15,000 -1,920 Descending Cleveland Center
11:06AM 42.2339 -78.4350 344° North 382 440 13,000 -1,860 Descending Cleveland Center
11:07AM 42.3283 -78.4739 343° North 366 421 11,300 -1,020 Descending Cleveland Center
11:08AM 42.4208 -78.5131 343° North 354 407 11,000 -600 Descending Cleveland Center
11:09AM 42.5047 -78.5469 343° North 342 394 10,200 -1,500 Descending Cleveland Center
11:10AM 42.5847 -78.5839 341° North 311 358 8,000 -2,100 Descending Cleveland Center
11:11AM 42.6497 -78.6100 344° North 284 327 6,000 -1,920 Descending Cleveland Center
11:12AM 42.7308 -78.6075 North 271 312 4,200 -1,020 Descending Cleveland Center
11:13AM 42.7953 -78.5883 12° North 248 285 4,000 -180 Descending Cleveland Center
11:14AM 42.8597 -78.5778 North 237 273 3,900 -420 Descending Cleveland Center
11:15AM 42.9094 -78.5650 11° North 216 249 3,200 -720 Descending Cleveland Center
11:16AM 42.9592 -78.5519 11° North 199 229 2,500 -360 Descending Cleveland Center
11:17AM 43.0036 -78.5817 334° Northwest 174 200 2,500 -300 Level Cleveland Center
11:18AM 43.0000 -78.6667 267° West 169 194 1,900 -420 Descending Buffalo TRACON